createdAt,value
2019-04-25T00:00:05.451Z,23.20
2019-04-25T00:02:52.640Z,23.00
2019-04-25T00:05:42.755Z,23.95
2019-04-25T00:08:57.146Z,22.60
2019-04-25T00:11:59.744Z,23.05
2019-04-25T00:14:42.568Z,23.40
2019-04-25T00:17:42.307Z,24.05
2019-04-25T00:20:53.725Z,22.77
2019-04-25T00:23:28.453Z,22.95
2019-04-25T00:26:11.490Z,23.70
2019-04-25T00:28:45.445Z,22.52
2019-04-25T00:31:25.930Z,23.73
2019-04-25T00:34:02.172Z,24.30
2019-04-25T00:36:38.956Z,24.00
2019-04-25T00:39:14.222Z,23.62
2019-04-25T00:41:46.412Z,22.62
2019-04-25T00:44:19.067Z,24.43
2019-04-25T00:46:54.918Z,23.42
2019-04-25T00:49:25.479Z,24.98
2019-04-25T00:51:59.617Z,23.65
2019-04-25T00:54:34.813Z,24.02
2019-04-25T00:57:07.666Z,24.50
2019-04-25T01:00:14.358Z,23.83
2019-04-25T01:02:50.212Z,23.55
2019-04-25T01:05:23.831Z,22.65
2019-04-25T01:07:55.688Z,24.27
2019-04-25T01:10:28.630Z,24.37
2019-04-25T01:13:04.739Z,23.65
2019-04-25T01:15:37.182Z,22.58
2019-04-25T01:18:09.654Z,22.98
2019-04-25T01:20:45.460Z,22.98
2019-04-25T01:23:20.960Z,23.47
2019-04-25T01:26:03.227Z,24.07
2019-04-25T01:28:40.244Z,22.60
2019-04-25T01:31:14.902Z,23.85
2019-04-25T01:33:56.605Z,22.98
2019-04-25T01:36:38.844Z,23.85
2019-04-25T01:39:19.285Z,22.65
2019-04-25T01:42:17.351Z,22.65
2019-04-25T01:44:49.976Z,23.98
2019-04-25T01:47:37.650Z,23.35
2019-04-25T01:50:17.710Z,23.62
2019-04-25T01:53:07.640Z,23.90
2019-04-25T01:56:07.882Z,22.98
2019-04-25T01:58:55.956Z,23.60
2019-04-25T02:02:16.205Z,22.52
2019-04-25T02:04:55.362Z,24.25
2019-04-25T02:07:53.359Z,25.02
2019-04-25T02:10:38.219Z,24.32
2019-04-25T02:13:23.551Z,23.65
2019-04-25T02:16:29.765Z,22.60
2019-04-25T02:19:07.360Z,24.30
2019-04-25T02:22:00.041Z,23.75
2019-04-25T02:24:37.039Z,24.00
2019-04-25T02:27:13.531Z,24.55
2019-04-25T02:29:48.612Z,23.75
2019-04-25T02:32:24.723Z,24.50
2019-04-25T02:35:00.593Z,23.98
2019-04-25T02:37:29.913Z,25.70
2019-04-25T02:40:07.682Z,25.43
2019-04-25T02:42:40.077Z,25.50
2019-04-25T02:45:30.865Z,25.32
2019-04-25T02:48:25.923Z,25.57
2019-04-25T02:51:14.579Z,25.17
2019-04-25T02:53:53.733Z,25.75
2019-04-25T02:56:37.600Z,25.92
2019-04-25T02:59:18.392Z,24.45
2019-04-25T03:01:54.152Z,25.70
2019-04-25T03:04:28.687Z,25.82
2019-04-25T03:07:24.563Z,25.57
2019-04-25T03:09:58.058Z,25.25
2019-04-25T03:12:34.405Z,24.92
2019-04-25T03:15:15.738Z,25.57
2019-04-25T03:17:48.238Z,25.80
2019-04-25T03:20:35.298Z,24.95
2019-04-25T03:23:34.962Z,25.25
2019-04-25T03:26:23.694Z,26.35
2019-04-25T03:29:08.133Z,26.50
2019-04-25T03:31:40.156Z,26.10
2019-04-25T03:34:25.476Z,28.05
2019-04-25T03:37:05.229Z,28.25
2019-04-25T03:39:43.710Z,26.60
2019-04-25T03:42:15.712Z,27.50
2019-04-25T03:44:46.969Z,27.77
2019-04-25T03:47:17.849Z,27.02
2019-04-25T03:49:55.458Z,26.85
2019-04-25T03:52:37.996Z,28.07
2019-04-25T03:55:15.326Z,27.48
2019-04-25T03:58:14.274Z,28.12
2019-04-25T04:00:49.123Z,27.52
2019-04-25T04:03:49.090Z,27.42
2019-04-25T04:06:36.295Z,28.15
2019-04-25T04:09:50.713Z,28.15
2019-04-25T04:12:22.323Z,28.95
2019-04-25T04:14:54.592Z,70.47
2019-04-25T04:17:54.416Z,28.92
2019-04-25T04:21:41.347Z,29.25
2019-04-25T04:31:17.285Z,26.97
2019-04-25T04:34:04.267Z,27.77
2019-04-25T04:36:38.590Z,28.95
2019-04-25T04:39:44.993Z,28.47
2019-04-25T04:42:31.533Z,28.30
2019-04-25T04:45:10.221Z,27.20
2019-04-25T04:47:49.720Z,27.17
2019-04-25T04:50:28.069Z,27.22
2019-04-25T04:53:05.138Z,27.70
2019-04-25T04:55:39.477Z,26.77
2019-04-25T04:58:27.058Z,26.97
2019-04-25T05:01:24.746Z,27.77
2019-04-25T05:04:10.621Z,26.85
2019-04-25T05:07:17.503Z,27.02
2019-04-25T05:10:11.376Z,26.93
2019-04-25T05:13:15.246Z,27.13
2019-04-25T05:15:54.392Z,27.65
2019-04-25T05:18:40.007Z,27.65
2019-04-25T05:21:28.089Z,28.07
2019-04-25T05:24:26.378Z,27.13
2019-04-25T05:27:32.259Z,28.47
2019-04-25T05:30:06.224Z,27.95
2019-04-25T05:33:01.409Z,27.35
2019-04-25T05:35:55.083Z,27.42
2019-04-25T05:39:16.343Z,27.15
2019-04-25T05:42:54.285Z,27.35
2019-04-25T05:45:37.282Z,27.10
2019-04-25T05:48:21.171Z,27.48
2019-04-25T05:51:05.413Z,27.37
2019-04-25T05:53:58.076Z,27.00
2019-04-25T05:56:41.030Z,26.48
2019-04-25T05:59:17.950Z,27.35
2019-04-25T06:01:54.365Z,28.00
2019-04-25T06:04:30.976Z,27.13
2019-04-25T06:07:06.513Z,27.02
2019-04-25T06:10:11.163Z,27.02
2019-04-25T06:13:51.079Z,26.05
2019-04-25T06:16:51.225Z,27.60
2019-04-25T06:19:44.931Z,26.42
2019-04-25T06:22:31.004Z,26.50
2019-04-25T06:25:29.858Z,24.60
2019-04-25T06:28:13.695Z,24.55
2019-04-25T06:30:53.990Z,23.35
2019-04-25T06:33:50.738Z,22.77
2019-04-25T06:36:35.368Z,22.58
2019-04-25T06:39:20.373Z,22.50
2019-04-25T06:41:59.861Z,20.85
2019-04-25T06:45:40.140Z,19.62
2019-04-25T06:48:59.626Z,21.05
2019-04-25T06:52:04.661Z,19.32
2019-04-25T06:55:04.307Z,19.32
2019-04-25T06:58:11.632Z,20.20
2019-04-25T07:00:57.590Z,19.05
2019-04-25T07:04:01.213Z,17.27
2019-04-25T07:07:09.702Z,17.42
2019-04-25T07:10:00.799Z,17.35
2019-04-25T07:12:54.381Z,17.12
2019-04-25T07:15:44.774Z,16.45
2019-04-25T07:18:24.803Z,15.32
2019-04-25T07:21:18.822Z,14.63
2019-04-25T07:24:14.495Z,14.15
2019-04-25T07:30:51.641Z,11.65
2019-04-25T07:33:53.241Z,11.00
2019-04-25T07:36:53.448Z,11.78
2019-04-25T07:39:54.177Z,12.28
2019-04-25T07:42:59.607Z,12.63
2019-04-25T07:45:43.986Z,11.18
2019-04-25T07:48:23.268Z,9.85
2019-04-25T07:51:23.751Z,9.73
2019-04-25T07:54:04.489Z,8.98
2019-04-25T07:57:04.863Z,9.18
2019-04-25T08:00:15.293Z,8.33
2019-04-25T08:03:06.432Z,8.08
2019-04-25T08:05:57.679Z,7.22
2019-04-25T08:08:44.879Z,7.62
2019-04-25T08:11:40.327Z,7.05
2019-04-25T08:15:23.586Z,7.97
2019-04-25T08:18:14.389Z,7.95
2019-04-25T08:21:10.961Z,8.83
2019-04-25T08:24:11.130Z,8.15
2019-04-25T08:27:05.118Z,8.23
2019-04-25T08:30:05.402Z,8.00
2019-04-25T08:33:11.651Z,8.00
2019-04-25T08:36:06.697Z,7.70
2019-04-25T08:38:44.769Z,7.20
2019-04-25T08:41:38.475Z,6.90
2019-04-25T08:44:34.789Z,6.80
2019-04-25T08:47:33.201Z,6.65
2019-04-25T08:50:40.991Z,6.67
2019-04-25T08:53:19.625Z,6.72
2019-04-25T08:56:53.656Z,6.62
2019-04-25T09:00:15.784Z,6.45
2019-04-25T09:03:17.174Z,6.80
2019-04-25T09:06:11.116Z,7.15
2019-04-25T09:08:58.005Z,7.37
2019-04-25T09:11:44.624Z,6.83
2019-04-25T09:14:46.284Z,7.70
2019-04-25T09:17:26.365Z,7.35
2019-04-25T09:20:21.614Z,7.60
2019-04-25T09:23:05.003Z,7.97
2019-04-25T09:25:55.779Z,7.00
2019-04-25T09:28:37.613Z,7.30
2019-04-25T09:31:46.302Z,6.62
2019-04-25T09:34:41.205Z,7.40
2019-04-25T09:37:33.589Z,6.92
2019-04-25T09:40:56.288Z,6.90
2019-04-25T09:43:45.716Z,6.65
2019-04-25T09:46:46.895Z,6.87
2019-04-25T09:49:58.444Z,6.65
2019-04-25T09:52:56.090Z,6.20
2019-04-25T09:56:04.163Z,6.97
2019-04-25T09:59:29.852Z,6.20
2019-04-25T10:02:33.969Z,6.42
2019-04-25T10:05:20.499Z,6.60
2019-04-25T10:08:28.276Z,6.28
2019-04-25T10:11:47.278Z,5.28
2019-04-25T10:15:34.077Z,5.78
2019-04-25T10:18:46.343Z,6.28
2019-04-25T10:21:45.227Z,5.78
2019-04-25T10:24:56.453Z,5.70
2019-04-25T10:27:24.563Z,5.80
2019-04-25T10:30:19.050Z,5.90
2019-04-25T10:32:56.483Z,5.42
2019-04-25T10:36:07.232Z,5.30
2019-04-25T10:39:01.957Z,5.67
2019-04-25T10:41:46.145Z,4.97
2019-04-25T10:44:41.777Z,5.60
2019-04-25T10:47:56.551Z,5.25
2019-04-25T10:50:34.117Z,5.30
2019-04-25T10:53:33.943Z,5.20
2019-04-25T10:56:10.195Z,4.78
2019-04-25T10:59:05.234Z,4.85
2019-04-25T11:02:04.017Z,5.20
2019-04-25T11:05:14.711Z,5.03
2019-04-25T11:08:13.721Z,5.20
2019-04-25T11:10:57.136Z,4.65
2019-04-25T11:13:45.195Z,4.47
2019-04-25T11:16:45.582Z,4.65
2019-04-25T11:19:51.966Z,4.90
2019-04-25T11:22:34.575Z,5.28
2019-04-25T11:25:29.995Z,4.97
2019-04-25T11:28:23.538Z,4.90
2019-04-25T11:31:05.681Z,5.08
2019-04-25T11:33:58.315Z,5.42
2019-04-25T11:36:38.387Z,4.90
2019-04-25T11:42:55.615Z,5.33
2019-04-25T11:45:33.535Z,4.47
2019-04-25T11:51:10.972Z,4.55
2019-04-25T11:53:55.572Z,4.22
2019-04-25T11:57:07.036Z,4.22
2019-04-25T11:59:50.571Z,4.67
2019-04-25T12:03:03.675Z,4.30
2019-04-25T12:05:57.273Z,4.90
2019-04-25T12:08:54.251Z,4.58
2019-04-25T12:11:49.891Z,4.40
2019-04-25T12:14:35.583Z,4.80
2019-04-25T12:17:26.421Z,4.40
2019-04-25T12:20:04.954Z,4.33
2019-04-25T12:23:10.258Z,4.42
2019-04-25T12:25:54.363Z,4.60
2019-04-25T12:28:34.721Z,4.37
2019-04-25T12:31:14.837Z,4.20
2019-04-25T12:34:10.313Z,4.45
2019-04-25T12:36:59.904Z,4.60
2019-04-25T12:39:49.367Z,4.67
2019-04-25T12:42:59.913Z,4.85
2019-04-25T12:46:23.683Z,4.97
2019-04-25T12:49:31.651Z,4.85
2019-04-25T12:53:03.793Z,5.35
2019-04-25T12:55:48.985Z,4.70
2019-04-25T12:58:45.517Z,5.00
2019-04-25T13:01:43.414Z,4.92
2019-04-25T13:04:24.382Z,4.85
2019-04-25T13:07:25.191Z,4.90
2019-04-25T13:10:19.810Z,4.65
2019-04-25T13:13:18.474Z,4.35
2019-04-25T13:15:58.601Z,4.90
2019-04-25T13:19:20.376Z,4.90
2019-04-25T13:22:13.461Z,5.22
2019-04-25T13:24:57.651Z,5.40
2019-04-25T13:28:00.269Z,5.35
2019-04-25T13:34:43.709Z,4.87
2019-04-25T13:37:30.239Z,5.08
2019-04-25T13:40:24.643Z,5.25
2019-04-25T13:43:00.092Z,4.92
2019-04-25T13:45:59.262Z,4.87
2019-04-25T13:48:45.879Z,5.42
2019-04-25T13:51:39.805Z,5.22
2019-04-25T13:54:26.602Z,5.17
2019-04-25T13:57:22.988Z,5.12
2019-04-25T14:00:36.411Z,5.05
2019-04-25T14:03:56.885Z,5.10
2019-04-25T14:06:57.470Z,5.22
2019-04-25T14:10:18.016Z,4.58
2019-04-25T14:13:17.998Z,4.60
2019-04-25T14:20:26.504Z,4.90
2019-04-25T14:23:20.619Z,4.75
2019-04-25T14:26:22.959Z,4.55
2019-04-25T14:29:04.255Z,5.15
2019-04-25T14:31:48.579Z,4.83
2019-04-25T14:34:48.021Z,4.90
2019-04-25T14:37:58.757Z,5.10
2019-04-25T14:40:52.931Z,4.90
2019-04-25T14:43:52.652Z,4.80
2019-04-25T14:47:10.612Z,5.08
2019-04-25T14:49:57.995Z,5.08
2019-04-25T14:52:54.573Z,5.22
2019-04-25T14:56:08.134Z,4.70
2019-04-25T14:59:01.968Z,5.20
2019-04-25T15:01:59.362Z,5.20
2019-04-25T15:04:47.669Z,5.92
2019-04-25T15:07:33.877Z,5.72
2019-04-25T15:10:28.659Z,5.42
2019-04-25T15:13:24.036Z,5.55
2019-04-25T15:16:38.963Z,5.70
2019-04-25T15:19:51.208Z,6.03
2019-04-25T15:23:03.252Z,5.60
2019-04-25T15:26:07.626Z,6.17
2019-04-25T15:28:52.679Z,5.67
2019-04-25T15:31:34.556Z,5.78
2019-04-25T15:34:36.152Z,5.87
2019-04-25T15:37:13.217Z,5.80
2019-04-25T15:39:48.734Z,5.55
2019-04-25T15:42:46.332Z,5.75
2019-04-25T15:45:28.714Z,6.20
2019-04-25T15:48:00.421Z,6.60
2019-04-25T15:50:31.911Z,6.20
2019-04-25T15:53:02.977Z,6.20
2019-04-25T15:55:34.746Z,5.42
2019-04-25T15:58:06.648Z,6.80
2019-04-25T16:00:38.160Z,6.00
2019-04-25T16:03:10.511Z,6.95
2019-04-25T16:05:41.328Z,6.45
2019-04-25T16:08:12.046Z,6.40
2019-04-25T16:10:43.809Z,6.30
2019-04-25T16:13:14.537Z,6.35
2019-04-25T16:15:45.477Z,6.17
2019-04-25T16:18:16.401Z,6.53
2019-04-25T16:20:47.163Z,6.50
2019-04-25T16:23:17.831Z,6.87
2019-04-25T16:25:50.696Z,6.80
2019-04-25T16:28:21.408Z,6.92
2019-04-25T16:30:52.355Z,6.62
2019-04-25T16:33:30.711Z,6.62
2019-04-25T16:36:01.479Z,6.78
2019-04-25T16:38:33.281Z,6.62
2019-04-25T16:41:08.982Z,6.97
2019-04-25T16:43:43.208Z,7.42
2019-04-25T16:46:14.510Z,7.62
2019-04-25T16:48:45.229Z,7.12
2019-04-25T16:51:16.911Z,7.22
2019-04-25T16:53:47.569Z,7.58
2019-04-25T16:56:18.245Z,7.17
2019-04-25T16:58:48.932Z,7.30
2019-04-25T17:01:19.781Z,6.92
2019-04-25T17:03:50.853Z,7.53
2019-04-25T17:06:22.970Z,7.70
2019-04-25T17:08:54.032Z,6.80
2019-04-25T17:11:24.713Z,6.78
2019-04-25T17:14:04.220Z,7.17
2019-04-25T17:17:13.136Z,8.60
2019-04-25T17:20:04.085Z,8.98
2019-04-25T17:22:36.003Z,9.83
2019-04-25T17:25:06.971Z,12.18
2019-04-25T17:27:37.780Z,10.35
2019-04-25T17:30:09.263Z,9.43
2019-04-25T17:32:57.390Z,8.78
2019-04-25T17:35:45.350Z,8.40
2019-04-25T17:38:25.978Z,12.68
2019-04-25T17:40:56.743Z,8.90
2019-04-25T17:43:27.510Z,8.60
2019-04-25T17:45:58.191Z,9.43
2019-04-25T17:48:31.874Z,7.95
2019-04-25T17:51:06.488Z,8.40
2019-04-25T17:53:37.796Z,8.28
2019-04-25T17:56:12.993Z,9.18
2019-04-25T17:58:43.817Z,8.63
2019-04-25T18:01:42.239Z,8.08
2019-04-25T18:04:44.656Z,8.95
2019-04-25T18:07:36.966Z,8.00
2019-04-25T18:10:40.443Z,8.20
2019-04-25T18:13:39.764Z,8.78
2019-04-25T18:17:07.941Z,8.75
2019-04-25T18:46:14.964Z,9.35
2019-04-25T18:49:15.447Z,9.60
2019-04-25T18:52:18.541Z,10.45
2019-04-25T18:58:55.197Z,8.63
2019-04-25T19:02:11.510Z,9.10
2019-04-25T19:09:09.445Z,9.75
2019-04-25T19:12:03.221Z,8.43
2019-04-25T19:15:14.746Z,9.70
2019-04-25T19:18:23.649Z,9.60
2019-04-25T19:21:19.701Z,16.75
2019-04-25T19:24:14.330Z,9.20
2019-04-25T19:27:09.077Z,9.78
2019-04-25T19:30:04.665Z,9.60
2019-04-25T19:32:47.459Z,9.58
2019-04-25T19:35:23.762Z,8.68
2019-04-25T19:38:20.090Z,9.60
2019-04-25T19:44:33.693Z,9.60
2019-04-25T19:47:06.294Z,9.83
2019-04-25T19:49:40.617Z,10.48
2019-04-25T19:52:11.471Z,9.68
2019-04-25T19:54:45.347Z,9.10
2019-04-25T19:57:16.931Z,10.13
2019-04-25T19:59:55.165Z,10.72
2019-04-25T20:02:34.787Z,9.78
2019-04-25T20:05:26.609Z,8.78
2019-04-25T20:08:02.665Z,9.53
2019-04-25T20:10:42.633Z,9.70
2019-04-25T20:13:17.262Z,9.23
2019-04-25T20:15:47.953Z,9.80
2019-04-25T20:18:17.966Z,10.08
2019-04-25T20:20:47.919Z,9.58
2019-04-25T20:23:18.561Z,9.58
2019-04-25T20:25:49.180Z,9.38
2019-04-25T20:28:20.874Z,9.55
2019-04-25T20:30:51.980Z,9.38
2019-04-25T20:33:22.610Z,9.98
2019-04-25T20:35:53.248Z,10.13
2019-04-25T20:38:26.644Z,9.80
2019-04-25T20:40:57.356Z,9.83
2019-04-25T20:43:28.169Z,9.33
2019-04-25T20:45:58.855Z,9.70
2019-04-25T20:48:29.568Z,9.98
2019-04-25T20:51:00.256Z,9.03
2019-04-25T20:53:31.280Z,9.85
2019-04-25T20:56:02.000Z,10.10
2019-04-25T20:58:32.749Z,10.18
2019-04-25T21:01:05.119Z,9.55
2019-04-25T21:03:36.825Z,10.48
2019-04-25T21:06:14.597Z,9.23
2019-04-25T21:08:45.252Z,134.12
2019-04-25T21:11:33.301Z,9.90
2019-04-25T21:14:27.492Z,9.70
2019-04-25T21:17:04.698Z,10.35
2019-04-25T21:19:48.673Z,9.60
2019-04-25T21:22:17.660Z,9.68
2019-04-25T21:24:49.479Z,9.80
2019-04-25T21:27:21.564Z,9.35
2019-04-25T21:29:56.402Z,9.25
2019-04-25T21:32:28.925Z,8.98
2019-04-25T21:35:18.518Z,9.15
2019-04-25T21:38:08.377Z,9.48
2019-04-25T21:44:54.099Z,9.05
2019-04-25T21:47:54.701Z,9.55
2019-04-25T21:54:45.387Z,13.22
2019-04-25T21:58:02.100Z,15.63
2019-04-25T22:01:47.851Z,14.65
2019-04-25T22:04:38.534Z,14.80
2019-04-25T22:07:28.610Z,16.20
2019-04-25T22:13:35.720Z,14.85
2019-04-25T22:16:33.646Z,16.12
2019-04-25T22:19:23.966Z,14.58
2019-04-25T22:22:16.919Z,14.95
2019-04-25T22:25:00.481Z,15.13
2019-04-25T22:27:38.959Z,13.95
2019-04-25T22:30:11.474Z,12.73
2019-04-25T22:33:01.556Z,12.25
2019-04-25T22:35:43.143Z,13.15
2019-04-25T22:38:14.378Z,12.80
2019-04-25T22:40:45.548Z,12.65
2019-04-25T22:43:17.756Z,13.10
2019-04-25T22:45:49.731Z,13.32
2019-04-25T22:48:26.259Z,13.83
2019-04-25T22:51:00.482Z,12.93
2019-04-25T22:53:31.649Z,13.38
2019-04-25T22:56:03.162Z,12.78
2019-04-25T22:58:34.920Z,12.43
2019-04-25T23:01:07.637Z,12.28
2019-04-25T23:03:42.733Z,12.20
2019-04-25T23:06:13.773Z,11.97
2019-04-25T23:08:44.562Z,11.40
2019-04-25T23:11:16.804Z,11.20
2019-04-25T23:13:48.031Z,11.22
2019-04-25T23:16:19.220Z,10.88
2019-04-25T23:18:49.926Z,11.57
2019-04-25T23:21:32.091Z,10.80
2019-04-25T23:24:03.454Z,11.22
2019-04-25T23:26:44.055Z,11.97
2019-04-25T23:29:16.569Z,11.53
2019-04-25T23:31:47.207Z,11.53
2019-04-25T23:34:18.730Z,11.88
2019-04-25T23:36:49.782Z,11.95
2019-04-25T23:39:21.589Z,11.30
2019-04-25T23:41:52.316Z,11.43
2019-04-25T23:44:23.984Z,12.05
2019-04-25T23:46:56.057Z,10.13
2019-04-25T23:49:27.956Z,9.48
2019-04-25T23:52:00.070Z,10.50
2019-04-25T23:54:34.817Z,9.55
2019-04-25T23:57:08.289Z,9.50
2019-04-25T23:59:41.616Z,9.90
